Главная страница
METAR-TAF:

METAR-TAF

Аэропорты :

Куусамо, Финляндия

широта: 65-58N, долгота: 029-11E, высота над уровнем моря: 262 м

Текущие метеонаблюдения

Эта сводка был подготовлена 30 минут назад, в 06:50 UTC
Ветер 5 Узел от восточно-юго-восточный, изменяющийся между северо-восточный и юго-юго-восточный
Температура 1°C
Влажность 47%
Давление 1033 hPa
Видимость 10 км и более
Нет облачности ниже 1500 м, и нет кучево-дождевой облачности

METAR: EFKS 290650Z AUTO 11005KT 050V160 CAVOK 01/M09 Q1033

Время: 10:20 (07:20 UTC)

Прогноз

Эта сводка был подготовлена 19 часа и 55 минут назад, в 11:25 UTC
Прогноз действительный с 28-го 12 UTC до 28-го 15 UTC
Ветер 5 Узел от восточно-северо-восточный
Видимость 10 км и более
Рассеянная облачность на высоте 3300 фута
небольшие ливневые снегопады

TAF: EFKS 281125Z 2812/2815 06005KT 9999 -SHSN BKN033

Метеонаблюдения и прогнозы для более 4000 аэропортов (сводки METAR и TAF).

Имеющиеся станции представлены на карте желтыми и красными точками.

Чтобы увидеть название станции, наведите на нее мышь.

Затем щелкните, чтобы увидеть метеонаблюдения и метеопрогнозы.

Управление картой: чтобы увеличить масштаб, щелкните зеленые кнопки с черным крестиком; чтобы уменьшить масштаб, щелкните зеленую кнопку с тире; для просмотра соседних карт щелкайте зеленые стрелки.


METAR-TAF: